sensor_id;sensor_type;location;lat;lon;timestamp;pressure;altitude;pressure_sealevel;temperature;humidity
3294;BME280;1659;51.470;6.770;2023-03-05T00:01:16;102002.75;;;5.09;72.72
3294;BME280;1659;51.470;6.770;2023-03-05T00:03:43;102003.56;;;5.06;72.57
3294;BME280;1659;51.470;6.770;2023-03-05T00:06:10;102002.63;;;5.04;72.62
3294;BME280;1659;51.470;6.770;2023-03-05T00:08:37;101993.88;;;5.02;72.54
3294;BME280;1659;51.470;6.770;2023-03-05T00:11:05;102003.44;;;5.00;72.75
3294;BME280;1659;51.470;6.770;2023-03-05T00:13:34;101997.28;;;4.98;72.73
3294;BME280;1659;51.470;6.770;2023-03-05T00:16:02;101998.06;;;4.96;73.05
3294;BME280;1659;51.470;6.770;2023-03-05T00:18:28;101997.19;;;4.95;72.95
3294;BME280;1659;51.470;6.770;2023-03-05T00:20:55;101998.09;;;4.97;72.95
3294;BME280;1659;51.470;6.770;2023-03-05T00:23:21;101991.09;;;4.96;72.91
3294;BME280;1659;51.470;6.770;2023-03-05T00:25:48;101989.38;;;4.97;73.13
3294;BME280;1659;51.470;6.770;2023-03-05T00:28:14;101993.69;;;4.96;73.15
3294;BME280;1659;51.470;6.770;2023-03-05T00:30:42;101986.72;;;4.95;73.06
3294;BME280;1659;51.470;6.770;2023-03-05T00:33:11;101988.38;;;4.91;73.14
3294;BME280;1659;51.470;6.770;2023-03-05T00:35:38;101987.41;;;4.88;73.49
3294;BME280;1659;51.470;6.770;2023-03-05T00:38:05;101978.66;;;4.87;73.53
3294;BME280;1659;51.470;6.770;2023-03-05T00:40:34;101977.78;;;4.87;73.74
3294;BME280;1659;51.470;6.770;2023-03-05T00:43:02;101976.03;;;4.86;73.77
3294;BME280;1659;51.470;6.770;2023-03-05T00:45:28;101976.03;;;4.86;73.67
3294;BME280;1659;51.470;6.770;2023-03-05T00:47:56;101974.28;;;4.86;73.50
3294;BME280;1659;51.470;6.770;2023-03-05T00:50:24;101969.91;;;4.87;73.82
3294;BME280;1659;51.470;6.770;2023-03-05T00:52:51;101963.81;;;4.86;73.37
3294;BME280;1659;51.470;6.770;2023-03-05T00:55:17;101962.06;;;4.87;73.80
3294;BME280;1659;51.470;6.770;2023-03-05T00:57:44;101960.31;;;4.86;73.56
3294;BME280;1659;51.470;6.770;2023-03-05T01:00:12;101957.69;;;4.86;73.75
3294;BME280;1659;51.470;6.770;2023-03-05T01:02:39;101957.69;;;4.86;73.70
3294;BME280;1659;51.470;6.770;2023-03-05T01:05:10;101953.31;;;4.86;73.89
3294;BME280;1659;51.470;6.770;2023-03-05T01:07:36;101955.06;;;4.86;74.13
3294;BME280;1659;51.470;6.770;2023-03-05T01:10:04;101953.28;;;4.85;74.00
3294;BME280;1659;51.470;6.770;2023-03-05T01:12:31;101948.03;;;4.85;74.07
3294;BME280;1659;51.470;6.770;2023-03-05T01:14:57;101951.50;;;4.84;73.88
3294;BME280;1659;51.470;6.770;2023-03-05T01:17:24;101946.25;;;4.84;73.97
3294;BME280;1659;51.470;6.770;2023-03-05T01:19:50;101948.03;;;4.85;73.87
3294;BME280;1659;51.470;6.770;2023-03-05T01:22:18;101942.75;;;4.83;73.77
3294;BME280;1659;51.470;6.770;2023-03-05T01:24:45;101942.72;;;4.82;73.72
3294;BME280;1659;51.470;6.770;2023-03-05T01:27:11;101943.59;;;4.81;74.08
3294;BME280;1659;51.470;6.770;2023-03-05T01:29:38;101935.69;;;4.79;74.05
3294;BME280;1659;51.470;6.770;2023-03-05T01:32:05;101933.94;;;4.80;73.81
3294;BME280;1659;51.470;6.770;2023-03-05T01:34:31;101936.56;;;4.80;74.13
3294;BME280;1659;51.470;6.770;2023-03-05T01:36:58;101925.22;;;4.79;74.13
3294;BME280;1659;51.470;6.770;2023-03-05T01:39:26;101926.09;;;4.80;74.23
3294;BME280;1659;51.470;6.770;2023-03-05T01:41:52;101925.22;;;4.79;74.12
3294;BME280;1659;51.470;6.770;2023-03-05T01:44:25;101911.22;;;4.77;74.14
3294;BME280;1659;51.470;6.770;2023-03-05T01:46:51;101912.97;;;4.78;74.08
3294;BME280;1659;51.470;6.770;2023-03-05T01:49:21;101911.16;;;4.76;74.25
3294;BME280;1659;51.470;6.770;2023-03-05T01:51:59;101907.66;;;4.75;74.27
3294;BME280;1659;51.470;6.770;2023-03-05T01:54:32;101907.63;;;4.73;74.22
3294;BME280;1659;51.470;6.770;2023-03-05T01:57:04;101899.78;;;4.73;74.11
3294;BME280;1659;51.470;6.770;2023-03-05T01:59:32;101905.03;;;4.73;74.38
3294;BME280;1659;51.470;6.770;2023-03-05T02:01:59;101903.25;;;4.72;74.15
3294;BME280;1659;51.470;6.770;2023-03-05T02:04:31;101900.63;;;4.72;74.02
3294;BME280;1659;51.470;6.770;2023-03-05T02:06:59;101894.50;;;4.72;74.31
3294;BME280;1659;51.470;6.770;2023-03-05T02:09:26;101891.88;;;4.72;74.34
3294;BME280;1659;51.470;6.770;2023-03-05T02:11:55;101879.66;;;4.72;74.30
3294;BME280;1659;51.470;6.770;2023-03-05T02:14:22;101881.41;;;4.72;74.34
3294;BME280;1659;51.470;6.770;2023-03-05T02:16:50;101876.13;;;4.70;74.27
3294;BME280;1659;51.470;6.770;2023-03-05T02:19:16;101870.00;;;4.68;74.40
3294;BME280;1659;51.470;6.770;2023-03-05T02:21:46;101873.44;;;4.67;74.20
3294;BME280;1659;51.470;6.770;2023-03-05T02:24:14;101870.75;;;4.64;74.38
3294;BME280;1659;51.470;6.770;2023-03-05T02:26:41;101865.50;;;4.64;74.41
3294;BME280;1659;51.470;6.770;2023-03-05T02:29:12;101861.13;;;4.63;74.65
3294;BME280;1659;51.470;6.770;2023-03-05T02:31:39;101855.81;;;4.60;74.56
3294;BME280;1659;51.470;6.770;2023-03-05T02:34:06;101856.63;;;4.58;74.74
3294;BME280;1659;51.470;6.770;2023-03-05T02:36:32;101849.63;;;4.57;74.53
3294;BME280;1659;51.470;6.770;2023-03-05T02:39:00;101853.09;;;4.56;74.98
3294;BME280;1659;51.470;6.770;2023-03-05T02:41:27;101862.69;;;4.55;74.90
3294;BME280;1659;51.470;6.770;2023-03-05T02:43:54;101846.06;;;4.53;75.15
3294;BME280;1659;51.470;6.770;2023-03-05T02:46:20;101849.50;;;4.52;74.90
3294;BME280;1659;51.470;6.770;2023-03-05T02:48:47;101845.16;;;4.51;75.17
3294;BME280;1659;51.470;6.770;2023-03-05T02:51:14;101843.38;;;4.50;74.98
3294;BME280;1659;51.470;6.770;2023-03-05T02:53:41;101850.31;;;4.48;75.12
3294;BME280;1659;51.470;6.770;2023-03-05T02:56:09;101838.03;;;4.47;75.12
3294;BME280;1659;51.470;6.770;2023-03-05T02:58:35;101830.19;;;4.47;74.98
3294;BME280;1659;51.470;6.770;2023-03-05T03:01:02;101836.25;;;4.44;75.16
3294;BME280;1659;51.470;6.770;2023-03-05T03:03:28;101828.38;;;4.43;74.97
3294;BME280;1659;51.470;6.770;2023-03-05T03:05:55;101825.72;;;4.41;75.06
3294;BME280;1659;51.470;6.770;2023-03-05T03:08:22;101824.84;;;4.41;75.34
3294;BME280;1659;51.470;6.770;2023-03-05T03:10:48;101820.44;;;4.40;75.24
3294;BME280;1659;51.470;6.770;2023-03-05T03:13:16;101817.84;;;4.41;75.16
3294;BME280;1659;51.470;6.770;2023-03-05T03:15:43;101820.44;;;4.40;75.28
3294;BME280;1659;51.470;6.770;2023-03-05T03:18:09;101810.84;;;4.40;75.30
3294;BME280;1659;51.470;6.770;2023-03-05T03:20:37;101808.22;;;4.39;75.25
3294;BME280;1659;51.470;6.770;2023-03-05T03:23:04;101807.31;;;4.38;75.34
3294;BME280;1659;51.470;6.770;2023-03-05T03:25:31;101802.03;;;4.37;75.27
3294;BME280;1659;51.470;6.770;2023-03-05T03:27:58;101809.06;;;4.38;75.41
3294;BME280;1659;51.470;6.770;2023-03-05T03:30:26;101801.19;;;4.38;75.44
3294;BME280;1659;51.470;6.770;2023-03-05T03:32:52;101802.03;;;4.37;75.72
3294;BME280;1659;51.470;6.770;2023-03-05T03:35:19;101794.16;;;4.35;75.72
3294;BME280;1659;51.470;6.770;2023-03-05T03:37:46;101793.28;;;4.34;75.81
3294;BME280;1659;51.470;6.770;2023-03-05T03:40:13;101793.22;;;4.33;75.83
3294;BME280;1659;51.470;6.770;2023-03-05T03:42:39;101782.72;;;4.30;75.96
3294;BME280;1659;51.470;6.770;2023-03-05T03:45:07;101784.47;;;4.31;75.86
3294;BME280;1659;51.470;6.770;2023-03-05T03:47:35;101787.03;;;4.29;75.73
3294;BME280;1659;51.470;6.770;2023-03-05T03:50:02;101783.50;;;4.27;75.83
3294;BME280;1659;51.470;6.770;2023-03-05T03:52:29;101780.78;;;4.23;75.94
3294;BME280;1659;51.470;6.770;2023-03-05T03:54:56;101772.91;;;4.21;75.95
3294;BME280;1659;51.470;6.770;2023-03-05T03:57:26;101773.72;;;4.19;75.97
3294;BME280;1659;51.470;6.770;2023-03-05T03:59:53;101764.06;;;4.16;76.17
3294;BME280;1659;51.470;6.770;2023-03-05T04:02:19;101762.25;;;4.13;75.88
3294;BME280;1659;51.470;6.770;2023-03-05T04:04:47;101756.97;;;4.12;76.00
3294;BME280;1659;51.470;6.770;2023-03-05T04:07:14;101767.41;;;4.10;76.18
3294;BME280;1659;51.470;6.770;2023-03-05T04:09:40;101767.38;;;4.09;76.09
3294;BME280;1659;51.470;6.770;2023-03-05T04:12:07;101755.19;;;4.09;76.25
3294;BME280;1659;51.470;6.770;2023-03-05T04:14:34;101750.78;;;4.08;76.23
3294;BME280;1659;51.470;6.770;2023-03-05T04:17:02;101749.94;;;4.08;76.12
3294;BME280;1659;51.470;6.770;2023-03-05T04:19:29;101749.88;;;4.06;76.36
3294;BME280;1659;51.470;6.770;2023-03-05T04:21:57;101745.53;;;4.07;76.54
3294;BME280;1659;51.470;6.770;2023-03-05T04:24:24;101733.28;;;4.04;76.52
3294;BME280;1659;51.470;6.770;2023-03-05T04:26:50;101730.63;;;4.03;76.55
3294;BME280;1659;51.470;6.770;2023-03-05T04:29:17;101737.56;;;4.01;76.78
3294;BME280;1659;51.470;6.770;2023-03-05T04:31:44;101728.78;;;3.99;76.28
3294;BME280;1659;51.470;6.770;2023-03-05T04:34:10;101729.63;;;3.97;76.63
3294;BME280;1659;51.470;6.770;2023-03-05T04:36:37;101720.88;;;3.95;76.83
3294;BME280;1659;51.470;6.770;2023-03-05T04:39:05;101718.16;;;3.92;76.83
3294;BME280;1659;51.470;6.770;2023-03-05T04:41:31;101714.63;;;3.90;77.31
3294;BME280;1659;51.470;6.770;2023-03-05T04:43:58;101719.88;;;3.90;77.14
3294;BME280;1659;51.470;6.770;2023-03-05T04:46:24;101702.34;;;3.88;77.64
3294;BME280;1659;51.470;6.770;2023-03-05T04:48:51;101702.34;;;3.88;77.03
3294;BME280;1659;51.470;6.770;2023-03-05T04:51:17;101718.03;;;3.88;77.39
3294;BME280;1659;51.470;6.770;2023-03-05T04:53:44;101718.03;;;3.88;77.27
3294;BME280;1659;51.470;6.770;2023-03-05T04:56:12;101719.88;;;3.90;77.57
3294;BME280;1659;51.470;6.770;2023-03-05T04:58:38;101710.28;;;3.91;77.53
3294;BME280;1659;51.470;6.770;2023-03-05T05:01:05;101712.06;;;3.92;77.59
3294;BME280;1659;51.470;6.770;2023-03-05T05:03:33;101709.41;;;3.90;77.61
3294;BME280;1659;51.470;6.770;2023-03-05T05:06:00;101705.91;;;3.90;77.80
3294;BME280;1659;51.470;6.770;2023-03-05T05:08:27;101710.25;;;3.89;77.75
3294;BME280;1659;51.470;6.770;2023-03-05T05:10:55;101708.44;;;3.87;77.75
3294;BME280;1659;51.470;6.770;2023-03-05T05:13:23;101703.19;;;3.85;78.15
3294;BME280;1659;51.470;6.770;2023-03-05T05:15:50;101699.69;;;3.85;78.17
3294;BME280;1659;51.470;6.770;2023-03-05T05:18:16;101698.78;;;3.84;78.03
3294;BME280;1659;51.470;6.770;2023-03-05T05:20:43;101686.56;;;3.83;78.09
3294;BME280;1659;51.470;6.770;2023-03-05T05:23:10;101693.56;;;3.84;78.46
3294;BME280;1659;51.470;6.770;2023-03-05T05:25:36;101681.34;;;3.83;78.46
3294;BME280;1659;51.470;6.770;2023-03-05T05:28:03;101680.47;;;3.84;78.58
3294;BME280;1659;51.470;6.770;2023-03-05T05:30:31;101694.44;;;3.83;78.28
3294;BME280;1659;51.470;6.770;2023-03-05T05:32:58;101695.34;;;3.85;78.33
3294;BME280;1659;51.470;6.770;2023-03-05T05:35:24;101689.28;;;3.86;78.55
3294;BME280;1659;51.470;6.770;2023-03-05T05:37:51;101697.13;;;3.86;78.31
3294;BME280;1659;51.470;6.770;2023-03-05T05:40:18;101700.66;;;3.88;78.58
3294;BME280;1659;51.470;6.770;2023-03-05T05:42:44;101691.94;;;3.89;78.52
3294;BME280;1659;51.470;6.770;2023-03-05T05:45:11;101695.47;;;3.91;78.53
3294;BME280;1659;51.470;6.770;2023-03-05T05:47:39;101692.84;;;3.91;78.61
3294;BME280;1659;51.470;6.770;2023-03-05T05:50:06;101685.91;;;3.92;78.41
3294;BME280;1659;51.470;6.770;2023-03-05T05:52:33;101685.03;;;3.93;78.46
3294;BME280;1659;51.470;6.770;2023-03-05T05:54:59;101674.63;;;3.94;78.34
3294;BME280;1659;51.470;6.770;2023-03-05T05:57:25;101672.00;;;3.94;78.44
3294;BME280;1659;51.470;6.770;2023-03-05T05:59:52;101672.88;;;3.93;78.32
3294;BME280;1659;51.470;6.770;2023-03-05T06:02:19;101677.16;;;3.91;78.85
3294;BME280;1659;51.470;6.770;2023-03-05T06:04:46;101673.69;;;3.91;78.88
3294;BME280;1659;51.470;6.770;2023-03-05T06:07:13;101673.63;;;3.89;78.76
3294;BME280;1659;51.470;6.770;2023-03-05T06:09:39;101675.34;;;3.87;78.70
3294;BME280;1659;51.470;6.770;2023-03-05T06:12:06;101671.81;;;3.85;78.92
3294;BME280;1659;51.470;6.770;2023-03-05T06:14:33;101671.78;;;3.84;79.07
3294;BME280;1659;51.470;6.770;2023-03-05T06:16:59;101670.03;;;3.84;78.89
3294;BME280;1659;51.470;6.770;2023-03-05T06:19:26;101673.50;;;3.83;78.96
3294;BME280;1659;51.470;6.770;2023-03-05T06:21:54;101669.09;;;3.82;78.91
3294;BME280;1659;51.470;6.770;2023-03-05T06:24:21;101678.69;;;3.82;79.03
3294;BME280;1659;51.470;6.770;2023-03-05T06:26:47;101673.50;;;3.83;78.96
3294;BME280;1659;51.470;6.770;2023-03-05T06:29:14;101678.75;;;3.83;78.89
3294;BME280;1659;51.470;6.770;2023-03-05T06:31:41;101682.25;;;3.85;78.73
3294;BME280;1659;51.470;6.770;2023-03-05T06:34:09;101680.53;;;3.86;78.79
3294;BME280;1659;51.470;6.770;2023-03-05T06:36:37;101673.59;;;3.88;78.83
3294;BME280;1659;51.470;6.770;2023-03-05T06:39:06;101671.03;;;3.89;78.88
3294;BME280;1659;51.470;6.770;2023-03-05T06:41:32;101674.53;;;3.91;79.04
3294;BME280;1659;51.470;6.770;2023-03-05T06:44:00;101671.94;;;3.91;79.06
3294;BME280;1659;51.470;6.770;2023-03-05T06:46:30;101672.00;;;3.94;78.94
3294;BME280;1659;51.470;6.770;2023-03-05T06:48:58;101671.19;;;3.95;79.04
3294;BME280;1659;51.470;6.770;2023-03-05T06:51:26;101668.63;;;3.99;78.94
3294;BME280;1659;51.470;6.770;2023-03-05T06:53:54;101664.31;;;4.01;78.85
3294;BME280;1659;51.470;6.770;2023-03-05T06:56:22;101657.38;;;4.03;78.99
3294;BME280;1659;51.470;6.770;2023-03-05T06:58:50;101666.16;;;4.05;78.89
3294;BME280;1659;51.470;6.770;2023-03-05T07:01:17;101659.16;;;4.05;79.07
3294;BME280;1659;51.470;6.770;2023-03-05T07:03:44;101659.22;;;4.07;79.05
3294;BME280;1659;51.470;6.770;2023-03-05T07:06:13;101661.06;;;4.11;79.11
3294;BME280;1659;51.470;6.770;2023-03-05T07:08:40;101660.19;;;4.12;79.18
3294;BME280;1659;51.470;6.770;2023-03-05T07:11:09;101656.72;;;4.11;79.05
3294;BME280;1659;51.470;6.770;2023-03-05T07:13:37;101654.97;;;4.12;79.31
3294;BME280;1659;51.470;6.770;2023-03-05T07:16:04;101648.03;;;4.12;79.20
3294;BME280;1659;51.470;6.770;2023-03-05T07:18:31;101648.91;;;4.13;79.08
3294;BME280;1659;51.470;6.770;2023-03-05T07:21:01;101649.81;;;4.15;79.23
3294;BME280;1659;51.470;6.770;2023-03-05T07:23:27;101648.06;;;4.15;79.47
3294;BME280;1659;51.470;6.770;2023-03-05T07:25:54;101640.25;;;4.17;79.34
3294;BME280;1659;51.470;6.770;2023-03-05T07:28:20;101655.06;;;4.16;79.21
3294;BME280;1659;51.470;6.770;2023-03-05T07:30:55;101648.97;;;4.16;79.28
3294;BME280;1659;51.470;6.770;2023-03-05T07:33:22;101647.22;;;4.16;79.32
3294;BME280;1659;51.470;6.770;2023-03-05T07:35:48;101634.16;;;4.16;79.34
3294;BME280;1659;51.470;6.770;2023-03-05T07:38:15;101639.38;;;4.16;79.40
3294;BME280;1659;51.470;6.770;2023-03-05T07:40:41;101642.88;;;4.17;79.50
3294;BME280;1659;51.470;6.770;2023-03-05T07:43:08;101645.53;;;4.19;79.45
3294;BME280;1659;51.470;6.770;2023-03-05T07:45:38;101637.69;;;4.19;79.41
3294;BME280;1659;51.470;6.770;2023-03-05T07:48:07;101639.50;;;4.23;79.70
3294;BME280;1659;51.470;6.770;2023-03-05T07:50:34;101637.88;;;4.28;79.57
3294;BME280;1659;51.470;6.770;2023-03-05T07:53:01;101636.19;;;4.31;79.78
3294;BME280;1659;51.470;6.770;2023-03-05T07:55:27;101637.13;;;4.35;79.33
3294;BME280;1659;51.470;6.770;2023-03-05T07:57:54;101640.72;;;4.39;79.40
3294;BME280;1659;51.470;6.770;2023-03-05T08:00:21;101631.94;;;4.37;79.16
3294;BME280;1659;51.470;6.770;2023-03-05T08:02:47;101629.28;;;4.33;79.41
3294;BME280;1659;51.470;6.770;2023-03-05T08:05:16;101631.06;;;4.36;79.45
3294;BME280;1659;51.470;6.770;2023-03-05T08:07:42;101631.13;;;4.39;79.51
3294;BME280;1659;51.470;6.770;2023-03-05T08:10:10;101626.91;;;4.46;79.29
3294;BME280;1659;51.470;6.770;2023-03-05T08:12:36;101626.94;;;4.49;79.49
3294;BME280;1659;51.470;6.770;2023-03-05T08:15:03;101628.00;;;4.57;79.49
3294;BME280;1659;51.470;6.770;2023-03-05T08:17:30;101627.22;;;4.63;79.41
3294;BME280;1659;51.470;6.770;2023-03-05T08:19:56;101621.22;;;4.67;79.46
3294;BME280;1659;51.470;6.770;2023-03-05T08:22:25;101623.97;;;4.75;79.40
3294;BME280;1659;51.470;6.770;2023-03-05T08:24:52;101609.22;;;4.80;79.02
3294;BME280;1659;51.470;6.770;2023-03-05T08:27:18;101613.66;;;4.84;79.24
3294;BME280;1659;51.470;6.770;2023-03-05T08:29:45;101615.44;;;4.85;79.19
3294;BME280;1659;51.470;6.770;2023-03-05T08:32:12;101610.19;;;4.85;78.98
3294;BME280;1659;51.470;6.770;2023-03-05T08:34:38;101609.28;;;4.83;79.62
3294;BME280;1659;51.470;6.770;2023-03-05T08:37:05;101608.38;;;4.81;79.68
3294;BME280;1659;51.470;6.770;2023-03-05T08:39:34;101601.38;;;4.80;79.59
3294;BME280;1659;51.470;6.770;2023-03-05T08:42:01;101609.19;;;4.78;79.68
3294;BME280;1659;51.470;6.770;2023-03-05T08:44:28;101606.47;;;4.72;79.92
3294;BME280;1659;51.470;6.770;2023-03-05T08:46:54;101598.56;;;4.69;79.80
3294;BME280;1659;51.470;6.770;2023-03-05T08:49:21;101595.84;;;4.64;79.96
3294;BME280;1659;51.470;6.770;2023-03-05T08:51:48;101594.16;;;4.68;80.35
3294;BME280;1659;51.470;6.770;2023-03-05T08:54:14;101590.81;;;4.73;80.40
3294;BME280;1659;51.470;6.770;2023-03-05T08:56:42;101592.66;;;4.79;80.45
3294;BME280;1659;51.470;6.770;2023-03-05T08:59:10;101588.34;;;4.83;80.30
3294;BME280;1659;51.470;6.770;2023-03-05T09:01:36;101591.03;;;4.86;80.65
3294;BME280;1659;51.470;6.770;2023-03-05T09:04:03;101585.81;;;4.89;80.14
3294;BME280;1659;51.470;6.770;2023-03-05T09:06:29;101587.66;;;4.93;80.24
3294;BME280;1659;51.470;6.770;2023-03-05T09:08:56;101578.94;;;4.94;80.20
3294;BME280;1659;51.470;6.770;2023-03-05T09:11:22;101585.97;;;4.97;80.21
3294;BME280;1659;51.470;6.770;2023-03-05T09:13:50;101578.19;;;5.00;80.27
3294;BME280;1659;51.470;6.770;2023-03-05T09:16:18;101578.25;;;5.06;80.54
3294;BME280;1659;51.470;6.770;2023-03-05T09:18:45;101579.25;;;5.13;80.28
3294;BME280;1659;51.470;6.770;2023-03-05T09:21:14;101577.69;;;5.24;80.51
3294;BME280;1659;51.470;6.770;2023-03-05T09:23:41;101573.50;;;5.35;79.94
3294;BME280;1659;51.470;6.770;2023-03-05T09:26:09;101567.41;;;5.38;80.22
3294;BME280;1659;51.470;6.770;2023-03-05T09:28:37;101566.59;;;5.40;79.78
3294;BME280;1659;51.470;6.770;2023-03-05T09:31:07;101558.75;;;5.42;79.86
3294;BME280;1659;51.470;6.770;2023-03-05T09:33:35;101554.41;;;5.44;79.75
3294;BME280;1659;51.470;6.770;2023-03-05T09:36:03;101561.41;;;5.45;79.79
3294;BME280;1659;51.470;6.770;2023-03-05T09:38:30;101553.53;;;5.42;79.79
3294;BME280;1659;51.470;6.770;2023-03-05T09:41:00;101553.50;;;5.43;79.88
3294;BME280;1659;51.470;6.770;2023-03-05T09:43:38;101547.53;;;5.51;79.96
3294;BME280;1659;51.470;6.770;2023-03-05T09:46:17;101552.78;;;5.54;79.63
3294;BME280;1659;51.470;6.770;2023-03-05T09:48:50;101553.78;;;5.62;80.11
3294;BME280;1659;51.470;6.770;2023-03-05T09:51:21;101554.00;;;5.76;79.69
3294;BME280;1659;51.470;6.770;2023-03-05T09:53:54;101549.81;;;5.90;79.14
3294;BME280;1659;51.470;6.770;2023-03-05T09:56:27;101551.66;;;5.97;79.37
3294;BME280;1659;51.470;6.770;2023-03-05T09:58:58;101546.50;;;6.03;78.81
3294;BME280;1659;51.470;6.770;2023-03-05T10:01:33;101542.25;;;6.13;78.93
3294;BME280;1659;51.470;6.770;2023-03-05T10:04:09;101535.31;;;6.20;78.22
3294;BME280;1659;51.470;6.770;2023-03-05T10:06:40;101537.94;;;6.17;78.36
3294;BME280;1659;51.470;6.770;2023-03-05T10:09:13;101539.66;;;6.16;78.75
3294;BME280;1659;51.470;6.770;2023-03-05T10:11:49;101535.22;;;6.11;78.10
3294;BME280;1659;51.470;6.770;2023-03-05T10:14:23;101538.69;;;6.07;78.51
3294;BME280;1659;51.470;6.770;2023-03-05T10:17:20;101534.28;;;6.04;78.23
3294;BME280;1659;51.470;6.770;2023-03-05T10:20:01;101527.22;;;6.00;77.80
3294;BME280;1659;51.470;6.770;2023-03-05T10:22:32;101528.09;;;6.00;78.11
3294;BME280;1659;51.470;6.770;2023-03-05T10:25:17;101522.97;;;6.10;78.28
3294;BME280;1659;51.470;6.770;2023-03-05T10:27:47;101522.25;;;6.23;78.11
3294;BME280;1659;51.470;6.770;2023-03-05T10:30:29;101513.66;;;6.39;77.84
3294;BME280;1659;51.470;6.770;2023-03-05T10:33:05;101511.13;;;6.47;77.51
3294;BME280;1659;51.470;6.770;2023-03-05T10:41:28;101497.81;;;6.29;77.09
3294;BME280;1659;51.470;6.770;2023-03-05T10:44:01;101501.25;;;6.23;77.23
3294;BME280;1659;51.470;6.770;2023-03-05T10:46:33;101505.56;;;6.18;77.49
3294;BME280;1659;51.470;6.770;2023-03-05T10:49:11;101497.81;;;6.26;76.82
3294;BME280;1659;51.470;6.770;2023-03-05T10:51:46;101495.25;;;6.35;76.85
3294;BME280;1659;51.470;6.770;2023-03-05T10:54:18;101495.34;;;6.44;76.61
3294;BME280;1659;51.470;6.770;2023-03-05T10:56:49;101491.03;;;6.51;76.95
3294;BME280;1659;51.470;6.770;2023-03-05T10:59:16;101484.06;;;6.53;76.67
3294;BME280;1659;51.470;6.770;2023-03-05T11:02:00;101479.75;;;6.59;76.27
3294;BME280;1659;51.470;6.770;2023-03-05T11:04:32;101474.50;;;6.59;76.36
3294;BME280;1659;51.470;6.770;2023-03-05T11:07:05;101469.22;;;6.58;76.67
3294;BME280;1659;51.470;6.770;2023-03-05T11:09:31;101469.25;;;6.59;76.43
3294;BME280;1659;51.470;6.770;2023-03-05T11:12:05;101466.66;;;6.66;75.63
3294;BME280;1659;51.470;6.770;2023-03-05T11:14:36;101467.63;;;6.75;76.12
3294;BME280;1659;51.470;6.770;2023-03-05T11:17:24;101462.56;;;7.02;75.68
3294;BME280;1659;51.470;6.770;2023-03-05T11:19:53;101460.97;;;7.24;74.95
3294;BME280;1659;51.470;6.770;2023-03-05T11:22:21;101450.53;;;7.41;75.00
3294;BME280;1659;51.470;6.770;2023-03-05T11:25:03;101441.88;;;7.59;74.59
3294;BME280;1659;51.470;6.770;2023-03-05T11:27:34;101448.97;;;7.80;74.42
3294;BME280;1659;51.470;6.770;2023-03-05T11:30:03;101443.75;;;7.95;74.12
3294;BME280;1659;51.470;6.770;2023-03-05T11:32:43;101435.91;;;8.17;73.51
3294;BME280;1659;51.470;6.770;2023-03-05T11:35:27;101429.78;;;8.39;72.95
3294;BME280;1659;51.470;6.770;2023-03-05T11:37:59;101436.88;;;8.49;72.80
3294;BME280;1659;51.470;6.770;2023-03-05T11:40:27;101430.72;;;8.44;72.15
3294;BME280;1659;51.470;6.770;2023-03-05T11:42:58;101428.09;;;8.46;72.11
3294;BME280;1659;51.470;6.770;2023-03-05T11:45:26;101426.31;;;8.45;72.32
3294;BME280;1659;51.470;6.770;2023-03-05T11:47:55;101421.03;;;8.43;71.96
3294;BME280;1659;51.470;6.770;2023-03-05T11:50:27;101420.19;;;8.46;71.80
3294;BME280;1659;51.470;6.770;2023-03-05T11:52:56;101416.66;;;8.47;71.18
3294;BME280;1659;51.470;6.770;2023-03-05T11:55:26;101414.91;;;8.46;71.62
3294;BME280;1659;51.470;6.770;2023-03-05T11:58:02;101405.25;;;8.51;70.83
3294;BME280;1659;51.470;6.770;2023-03-05T12:00:31;101407.88;;;8.45;71.11
3294;BME280;1659;51.470;6.770;2023-03-05T12:03:04;101407.84;;;8.31;70.79
3294;BME280;1659;51.470;6.770;2023-03-05T12:05:35;101396.41;;;8.18;70.49
3294;BME280;1659;51.470;6.770;2023-03-05T12:08:02;101404.28;;;8.12;70.45
3294;BME280;1659;51.470;6.770;2023-03-05T12:10:30;101394.63;;;7.97;70.63
3294;BME280;1659;51.470;6.770;2023-03-05T12:12:58;101391.97;;;7.82;71.01
3294;BME280;1659;51.470;6.770;2023-03-05T12:15:34;101385.78;;;7.64;70.80
3294;BME280;1659;51.470;6.770;2023-03-05T12:18:13;101383.97;;;7.46;70.67
3294;BME280;1659;51.470;6.770;2023-03-05T12:20:47;101387.41;;;7.33;70.31
3294;BME280;1659;51.470;6.770;2023-03-05T12:23:21;101381.19;;;7.22;70.75
3294;BME280;1659;51.470;6.770;2023-03-05T12:25:52;101375.91;;;7.14;70.53
3294;BME280;1659;51.470;6.770;2023-03-05T12:28:52;101373.25;;;7.06;70.71
3294;BME280;1659;51.470;6.770;2023-03-05T12:31:33;101371.44;;;6.97;70.04
3294;BME280;1659;51.470;6.770;2023-03-05T12:34:35;101366.13;;;6.90;70.46
3294;BME280;1659;51.470;6.770;2023-03-05T12:37:04;101359.13;;;6.89;69.93
3294;BME280;1659;51.470;6.770;2023-03-05T12:39:49;101356.53;;;6.93;69.82
3294;BME280;1659;51.470;6.770;2023-03-05T12:42:46;101345.16;;;7.00;69.51
3294;BME280;1659;51.470;6.770;2023-03-05T12:45:28;101345.22;;;7.13;69.54
3294;BME280;1659;51.470;6.770;2023-03-05T12:50:58;101322.63;;;7.52;69.39
3294;BME280;1659;51.470;6.770;2023-03-05T12:53:26;101319.13;;;7.68;68.51
3294;BME280;1659;51.470;6.770;2023-03-05T12:55:57;101317.41;;;7.77;68.64
3294;BME280;1659;51.470;6.770;2023-03-05T12:58:34;101319.16;;;7.84;67.95
3294;BME280;1659;51.470;6.770;2023-03-05T13:01:12;101313.91;;;7.84;68.29
3294;BME280;1659;51.470;6.770;2023-03-05T13:03:45;101319.16;;;7.82;68.39
3294;BME280;1659;51.470;6.770;2023-03-05T13:06:23;101311.25;;;7.74;68.64
3294;BME280;1659;51.470;6.770;2023-03-05T13:08:57;101307.72;;;7.74;67.90
3294;BME280;1659;51.470;6.770;2023-03-05T13:11:23;101303.38;;;7.74;68.08
3294;BME280;1659;51.470;6.770;2023-03-05T13:13:50;101298.09;;;7.73;68.12
3294;BME280;1659;51.470;6.770;2023-03-05T13:16:18;101290.19;;;7.71;67.86
3294;BME280;1659;51.470;6.770;2023-03-05T13:18:46;101295.47;;;7.74;67.47
3294;BME280;1659;51.470;6.770;2023-03-05T13:21:16;101287.59;;;7.78;67.32
3294;BME280;1659;51.470;6.770;2023-03-05T13:23:47;101281.44;;;7.80;67.15
3294;BME280;1659;51.470;6.770;2023-03-05T13:26:17;101282.31;;;7.74;66.94
3294;BME280;1659;51.470;6.770;2023-03-05T13:29:02;101277.06;;;7.71;66.92
3294;BME280;1659;51.470;6.770;2023-03-05T13:31:29;101265.66;;;7.71;67.25
3294;BME280;1659;51.470;6.770;2023-03-05T13:34:04;101270.03;;;7.73;66.76
3294;BME280;1659;51.470;6.770;2023-03-05T13:36:33;101255.13;;;7.80;66.86
3294;BME280;1659;51.470;6.770;2023-03-05T13:38:59;101258.66;;;7.88;66.71
3294;BME280;1659;51.470;6.770;2023-03-05T13:41:29;101259.53;;;8.01;66.61